createdAt,value
2019-05-02T00:01:31.457Z,8.70
2019-05-02T00:03:58.991Z,8.20
2019-05-02T00:06:26.548Z,10.37
2019-05-02T00:08:54.246Z,8.90
2019-05-02T00:11:21.780Z,8.80
2019-05-02T00:13:50.772Z,10.60
2019-05-02T00:16:19.258Z,8.70
2019-05-02T00:18:46.880Z,8.57
2019-05-02T00:21:14.474Z,8.20
2019-05-02T00:23:42.888Z,9.23
2019-05-02T00:26:10.553Z,8.37
2019-05-02T00:28:38.080Z,9.63
2019-05-02T00:31:07.363Z,8.17
2019-05-02T00:33:35.904Z,7.67
2019-05-02T00:36:03.560Z,11.43
2019-05-02T00:38:33.357Z,9.40
2019-05-02T00:41:02.252Z,14.53
2019-05-02T00:43:29.069Z,11.10
2019-05-02T00:45:55.105Z,12.55
2019-05-02T00:48:35.632Z,12.03
2019-05-02T00:51:03.638Z,11.23
2019-05-02T00:53:31.370Z,11.30
2019-05-02T00:55:59.136Z,12.07
2019-05-02T00:58:27.373Z,9.80
2019-05-02T01:01:00.299Z,11.47
2019-05-02T01:03:27.926Z,10.47
2019-05-02T01:05:56.237Z,13.23
2019-05-02T01:08:23.932Z,8.50
2019-05-02T01:10:52.055Z,10.97
2019-05-02T01:13:20.342Z,14.73
2019-05-02T01:15:47.707Z,13.13
2019-05-02T01:18:16.194Z,8.17
2019-05-02T01:20:44.505Z,11.70
2019-05-02T01:23:12.198Z,10.47
2019-05-02T01:25:39.830Z,10.23
2019-05-02T01:28:17.747Z,16.03
2019-05-02T01:33:54.457Z,19.70
2019-05-02T01:36:36.747Z,14.07
2019-05-02T01:39:07.491Z,18.87
2019-05-02T01:41:31.365Z,16.03
2019-05-02T01:44:00.069Z,17.63
2019-05-02T01:46:26.558Z,12.90
2019-05-02T01:48:54.313Z,17.73
2019-05-02T01:51:21.907Z,16.63
2019-05-02T01:53:49.542Z,16.57
2019-05-02T01:56:17.090Z,13.83
2019-05-02T01:58:45.400Z,20.13
2019-05-02T02:01:16.224Z,18.77
2019-05-02T02:03:45.575Z,18.73
2019-05-02T02:06:10.157Z,19.33
2019-05-02T02:08:38.092Z,18.87
2019-05-02T02:11:05.748Z,17.30
2019-05-02T02:13:36.580Z,15.20
2019-05-02T02:16:04.413Z,18.23
2019-05-02T02:18:29.696Z,11.63
2019-05-02T02:24:07.334Z,23.08
2019-05-02T02:26:35.066Z,17.37
2019-05-02T02:29:03.135Z,15.10
2019-05-02T02:31:30.586Z,16.10
2019-05-02T02:33:58.348Z,16.67
2019-05-02T02:36:31.249Z,19.37
2019-05-02T02:38:53.800Z,13.20
2019-05-02T02:41:21.538Z,21.50
2019-05-02T02:44:04.754Z,24.13
2019-05-02T02:46:37.905Z,21.50
2019-05-02T02:49:00.993Z,19.50
2019-05-02T02:51:28.686Z,21.70
2019-05-02T02:54:03.908Z,17.30
2019-05-02T02:56:24.861Z,19.30
2019-05-02T02:58:52.530Z,14.67
2019-05-02T03:01:27.442Z,16.73
2019-05-02T03:03:47.988Z,18.23
2019-05-02T03:06:15.709Z,19.33
2019-05-02T03:08:48.564Z,21.17
2019-05-02T03:11:22.358Z,14.50
2019-05-02T03:13:53.346Z,15.23
2019-05-02T03:16:19.971Z,22.03
2019-05-02T03:18:47.635Z,17.93
2019-05-02T03:21:20.353Z,17.05
2019-05-02T03:23:43.187Z,18.37
2019-05-02T03:26:15.145Z,16.33
2019-05-02T03:28:39.225Z,20.43
2019-05-02T03:31:21.877Z,19.47
2019-05-02T03:33:52.666Z,17.07
2019-05-02T03:36:04.086Z,16.73
2019-05-02T03:38:34.914Z,20.43
2019-05-02T03:40:59.538Z,14.33
2019-05-02T03:43:27.842Z,16.50
2019-05-02T03:45:55.479Z,17.57
2019-05-02T03:48:25.741Z,16.80
2019-05-02T03:50:50.692Z,20.37
2019-05-02T03:53:24.987Z,17.35
2019-05-02T03:55:46.723Z,16.37
2019-05-02T03:58:16.909Z,18.27
2019-05-02T04:00:41.912Z,15.73
2019-05-02T04:03:09.602Z,16.27
2019-05-02T04:05:40.256Z,16.90
2019-05-02T04:08:05.737Z,16.57
2019-05-02T04:11:10.986Z,17.73
2019-05-02T04:13:39.365Z,13.90
2019-05-02T04:16:14.478Z,19.97
2019-05-02T04:18:35.326Z,17.67
2019-05-02T04:21:03.732Z,15.80
2019-05-02T04:23:32.451Z,17.13
2019-05-02T04:26:00.008Z,18.30
2019-05-02T04:30:51.134Z,17.40
2019-05-02T04:33:17.729Z,23.92
2019-05-02T04:35:45.252Z,20.83
2019-05-02T04:38:20.371Z,20.63
2019-05-02T04:40:44.871Z,19.97
2019-05-02T04:43:11.235Z,18.12
2019-05-02T04:45:50.946Z,25.07
2019-05-02T04:48:04.814Z,19.33
2019-05-02T04:50:33.801Z,24.10
2019-05-02T04:53:03.718Z,20.60
2019-05-02T04:55:33.372Z,22.77
2019-05-02T04:58:01.765Z,13.07
2019-05-02T05:00:28.607Z,19.13
2019-05-02T05:05:31.308Z,24.93
2019-05-02T05:07:58.626Z,17.33
2019-05-02T05:10:27.723Z,17.87
2019-05-02T05:12:54.377Z,23.80
2019-05-02T05:15:35.949Z,20.23
2019-05-02T05:17:50.120Z,24.27
2019-05-02T05:20:18.730Z,27.47
2019-05-02T05:22:47.914Z,24.50
2019-05-02T05:25:21.414Z,19.90
2019-05-02T05:27:52.694Z,27.67
2019-05-02T05:30:18.646Z,25.20
2019-05-02T05:32:44.298Z,21.90
2019-05-02T05:35:13.025Z,14.60
2019-05-02T05:37:43.245Z,20.73
2019-05-02T05:40:08.434Z,20.67
2019-05-02T05:42:37.795Z,23.93
2019-05-02T05:45:08.728Z,31.20
2019-05-02T05:47:31.632Z,24.93
2019-05-02T05:50:01.014Z,25.10
2019-05-02T05:52:27.672Z,17.47
2019-05-02T05:54:57.777Z,22.90
2019-05-02T05:57:23.101Z,18.20
2019-05-02T05:59:51.478Z,21.80
2019-05-02T06:02:19.378Z,22.33
2019-05-02T06:04:50.261Z,25.77
2019-05-02T06:07:17.585Z,26.30
2019-05-02T06:09:44.377Z,28.90
2019-05-02T06:12:12.481Z,27.70
2019-05-02T06:14:40.039Z,21.57
2019-05-02T06:17:09.211Z,30.27
2019-05-02T06:19:38.234Z,19.30
2019-05-02T06:22:06.852Z,26.50
2019-05-02T06:24:34.751Z,24.87
2019-05-02T06:27:02.447Z,29.50
2019-05-02T06:29:31.471Z,29.77
2019-05-02T06:32:01.042Z,30.97
2019-05-02T06:34:29.044Z,33.40
2019-05-02T06:36:57.420Z,24.77
2019-05-02T06:39:27.020Z,29.90
2019-05-02T06:41:57.511Z,39.17
2019-05-02T06:44:23.862Z,33.40
2019-05-02T06:46:51.069Z,36.30
2019-05-02T06:49:24.177Z,28.80
2019-05-02T06:51:50.985Z,31.50
2019-05-02T06:54:18.038Z,31.40
2019-05-02T06:56:47.494Z,29.93
2019-05-02T06:59:13.038Z,34.17
2019-05-02T07:01:38.606Z,35.40
2019-05-02T07:04:06.410Z,33.60
2019-05-02T07:06:42.223Z,41.33
2019-05-02T07:09:03.036Z,37.93
2019-05-02T07:11:33.098Z,32.60
2019-05-02T07:14:12.133Z,35.20
2019-05-02T07:16:38.475Z,36.53
2019-05-02T07:19:00.980Z,34.43
2019-05-02T07:21:28.747Z,38.63
2019-05-02T07:23:56.546Z,35.20
2019-05-02T07:26:24.230Z,28.30
2019-05-02T07:28:51.994Z,34.50
2019-05-02T07:31:19.691Z,36.55
2019-05-02T07:33:48.171Z,33.27
2019-05-02T07:36:15.910Z,33.67
2019-05-02T07:38:43.530Z,31.17
2019-05-02T07:41:11.941Z,34.67
2019-05-02T07:43:39.714Z,40.43
2019-05-02T07:46:07.369Z,30.93
2019-05-02T07:48:35.616Z,35.53
2019-05-02T07:51:03.853Z,39.28
2019-05-02T07:53:31.995Z,38.10
2019-05-02T07:55:59.859Z,35.33
2019-05-02T07:58:27.730Z,37.90
2019-05-02T08:00:55.399Z,32.83
2019-05-02T08:03:23.227Z,32.50
2019-05-02T08:05:54.542Z,33.53
2019-05-02T08:08:18.722Z,41.87
2019-05-02T08:10:46.408Z,33.37
2019-05-02T08:13:17.420Z,36.17
2019-05-02T08:15:45.650Z,30.93
2019-05-02T08:18:10.107Z,38.63
2019-05-02T08:20:37.734Z,29.97
2019-05-02T08:23:06.149Z,30.77
2019-05-02T08:25:33.840Z,37.57
2019-05-02T08:28:04.701Z,38.37
2019-05-02T08:30:29.879Z,36.37
2019-05-02T08:32:57.645Z,38.97
2019-05-02T08:35:27.881Z,33.83
2019-05-02T08:37:55.829Z,34.30
2019-05-02T08:40:20.933Z,41.63
2019-05-02T08:42:48.595Z,41.07
2019-05-02T08:45:16.673Z,37.10
2019-05-02T08:47:44.293Z,39.40
2019-05-02T08:50:11.861Z,37.40
2019-05-02T08:52:42.080Z,37.30
2019-05-02T08:55:09.862Z,34.27
2019-05-02T08:57:36.312Z,43.37
2019-05-02T09:00:04.989Z,42.17
2019-05-02T09:02:41.252Z,42.27
2019-05-02T09:05:04.558Z,36.93
2019-05-02T09:07:31.635Z,39.13
2019-05-02T09:10:00.187Z,32.90
2019-05-02T09:12:24.796Z,37.20
2019-05-02T09:14:52.355Z,37.57
2019-05-02T09:17:34.566Z,44.93
2019-05-02T09:19:59.404Z,38.40
2019-05-02T09:22:16.871Z,42.83
2019-05-02T09:24:44.979Z,37.80
2019-05-02T09:27:11.870Z,34.20
2019-05-02T09:29:44.482Z,42.70
2019-05-02T09:32:07.080Z,42.07
2019-05-02T09:34:34.669Z,40.30
2019-05-02T09:37:02.772Z,33.93
2019-05-02T09:39:32.760Z,36.33
2019-05-02T09:41:57.719Z,36.70
2019-05-02T09:44:25.276Z,33.77
2019-05-02T09:46:56.868Z,36.33
2019-05-02T09:49:22.076Z,30.17
2019-05-02T09:51:50.456Z,31.10
2019-05-02T09:54:18.667Z,35.00
2019-05-02T09:56:46.378Z,39.73
2019-05-02T09:59:26.651Z,32.93
2019-05-02T10:01:42.262Z,33.50
2019-05-02T10:04:11.871Z,31.50
2019-05-02T10:06:38.460Z,31.90
2019-05-02T10:09:06.833Z,26.30
2019-05-02T10:11:35.396Z,29.20
2019-05-02T10:14:04.073Z,28.15
2019-05-02T10:16:32.031Z,28.70
2019-05-02T10:19:09.102Z,34.17
2019-05-02T10:21:28.172Z,31.03
2019-05-02T10:23:59.551Z,27.73
2019-05-02T10:26:24.582Z,30.63
2019-05-02T10:28:53.362Z,31.37
2019-05-02T10:31:19.399Z,28.53
2019-05-02T10:33:47.203Z,30.80
2019-05-02T10:36:19.788Z,32.40
2019-05-02T10:38:42.786Z,33.03
2019-05-02T10:41:12.050Z,30.83
2019-05-02T10:43:37.977Z,31.23
2019-05-02T10:46:05.644Z,28.37
2019-05-02T10:48:33.407Z,29.60
2019-05-02T10:51:06.490Z,24.80
2019-05-02T10:53:35.002Z,25.13
2019-05-02T10:56:02.730Z,25.40
2019-05-02T10:58:34.147Z,25.03
2019-05-02T11:00:58.500Z,26.47
2019-05-02T11:03:31.810Z,27.87
2019-05-02T11:06:03.015Z,24.20
2019-05-02T11:08:26.184Z,27.87
2019-05-02T11:10:54.537Z,25.53
2019-05-02T11:13:25.908Z,23.37
2019-05-02T11:15:56.812Z,27.40
2019-05-02T11:18:39.516Z,22.27
2019-05-02T11:20:52.855Z,22.53
2019-05-02T11:23:22.134Z,24.37
2019-05-02T11:25:49.474Z,19.50
2019-05-02T11:28:18.024Z,17.10
2019-05-02T11:30:45.649Z,16.83
2019-05-02T11:33:13.603Z,19.05
2019-05-02T11:35:48.565Z,18.47
2019-05-02T11:38:09.287Z,20.30
2019-05-02T11:40:37.929Z,18.97
2019-05-02T11:43:06.874Z,18.40
2019-05-02T11:45:34.198Z,19.10
2019-05-02T11:48:09.052Z,17.93
2019-05-02T11:50:31.964Z,21.57
2019-05-02T11:52:57.416Z,20.70
2019-05-02T11:55:29.031Z,17.93
2019-05-02T11:57:52.700Z,22.57
2019-05-02T12:00:21.827Z,23.90
2019-05-02T12:02:58.125Z,29.07
2019-05-02T12:05:26.522Z,29.23
2019-05-02T12:07:52.555Z,28.27
2019-05-02T12:10:21.623Z,28.50
2019-05-02T12:12:49.375Z,31.80
2019-05-02T12:15:17.001Z,29.87
2019-05-02T12:17:44.763Z,33.03
2019-05-02T12:20:12.320Z,30.13
2019-05-02T12:22:41.835Z,37.57
2019-05-02T12:25:07.820Z,34.73
2019-05-02T12:27:35.647Z,34.73
2019-05-02T12:30:04.200Z,34.33
2019-05-02T12:32:33.388Z,30.33
2019-05-02T12:34:59.659Z,31.47
2019-05-02T12:37:27.353Z,29.63
2019-05-02T12:39:55.763Z,29.83
2019-05-02T12:42:24.351Z,27.40
2019-05-02T12:44:53.259Z,29.53
2019-05-02T12:47:22.557Z,30.90
2019-05-02T12:49:49.307Z,27.60
2019-05-02T12:52:17.137Z,31.87
2019-05-02T12:54:46.174Z,25.87
2019-05-02T12:57:13.825Z,29.20
2019-05-02T12:59:41.715Z,26.13
2019-05-02T13:02:12.086Z,29.60
2019-05-02T13:04:37.865Z,26.37
2019-05-02T13:07:05.417Z,23.83
2019-05-02T13:09:33.017Z,26.60
2019-05-02T13:12:03.130Z,26.00
2019-05-02T13:14:31.923Z,27.07
2019-05-02T13:17:01.260Z,27.93
2019-05-02T13:19:37.258Z,20.67
2019-05-02T13:22:02.029Z,27.48
2019-05-02T13:24:46.905Z,28.23
2019-05-02T13:27:12.482Z,23.77
2019-05-02T13:29:38.354Z,23.93
2019-05-02T13:35:12.720Z,26.08
2019-05-02T13:37:39.077Z,21.80
2019-05-02T13:40:07.318Z,21.00
2019-05-02T13:42:34.974Z,25.73
2019-05-02T13:45:17.551Z,21.00
2019-05-02T13:47:45.934Z,25.57
2019-05-02T13:50:14.542Z,20.33
2019-05-02T13:52:44.979Z,18.87
2019-05-02T13:55:11.704Z,16.90
2019-05-02T13:57:42.812Z,19.60
2019-05-02T14:00:05.899Z,17.60
2019-05-02T14:02:36.056Z,19.17
2019-05-02T14:05:05.590Z,14.90
2019-05-02T14:07:33.220Z,14.60
2019-05-02T14:10:02.470Z,14.67
2019-05-02T14:12:45.306Z,9.13
2019-05-02T14:15:13.727Z,12.25
2019-05-02T14:17:42.146Z,10.83
2019-05-02T14:20:11.015Z,11.03
2019-05-02T14:22:36.055Z,12.90
2019-05-02T14:25:04.597Z,11.17
2019-05-02T14:27:32.216Z,12.10
2019-05-02T14:30:02.257Z,10.10
2019-05-02T14:32:27.888Z,10.90
2019-05-02T14:35:02.412Z,10.90
2019-05-02T14:37:27.679Z,11.30
2019-05-02T14:39:55.234Z,14.17
2019-05-02T14:42:26.126Z,10.60
2019-05-02T14:45:07.191Z,10.13
2019-05-02T14:47:19.740Z,11.67
2019-05-02T14:49:46.556Z,6.70
2019-05-02T14:52:14.999Z,10.73
2019-05-02T14:54:47.594Z,8.00
2019-05-02T14:57:11.902Z,5.23
2019-05-02T14:59:38.458Z,8.67
2019-05-02T15:02:07.623Z,8.60
2019-05-02T15:04:38.214Z,7.80
2019-05-02T15:07:02.238Z,5.47
2019-05-02T15:09:29.863Z,6.70
2019-05-02T15:11:58.327Z,7.10
2019-05-02T15:14:27.722Z,6.20
2019-05-02T15:16:58.208Z,6.40
2019-05-02T15:19:22.425Z,5.77
2019-05-02T15:21:54.436Z,4.53
2019-05-02T15:24:17.750Z,4.23
2019-05-02T15:26:46.334Z,3.97
2019-05-02T15:29:19.795Z,4.97
2019-05-02T15:31:42.925Z,5.97
2019-05-02T15:34:13.011Z,5.40
2019-05-02T15:36:42.295Z,6.00
2019-05-02T15:41:39.792Z,2.80
2019-05-02T15:44:03.837Z,2.83
2019-05-02T15:46:31.875Z,4.17
2019-05-02T15:49:01.940Z,3.50
2019-05-02T15:51:28.502Z,1.83
2019-05-02T15:54:05.314Z,3.93
2019-05-02T15:56:24.516Z,5.53
2019-05-02T15:58:52.331Z,8.10
2019-05-02T16:01:22.547Z,7.07
2019-05-02T16:04:02.579Z,4.20
2019-05-02T16:06:33.247Z,2.17
2019-05-02T16:08:57.764Z,1.83
2019-05-02T16:11:26.889Z,1.87
2019-05-02T16:13:56.053Z,3.83
2019-05-02T16:16:24.764Z,3.57
2019-05-02T16:18:52.764Z,2.33
2019-05-02T16:21:28.434Z,2.57
2019-05-02T16:23:55.056Z,3.43
2019-05-02T16:26:22.591Z,2.57
2019-05-02T16:28:51.620Z,1.53
2019-05-02T16:31:22.125Z,1.83
2019-05-02T16:33:49.753Z,2.97
2019-05-02T16:36:14.391Z,1.95
2019-05-02T16:38:42.906Z,3.73
2019-05-02T16:41:11.423Z,3.30
2019-05-02T16:43:38.336Z,4.40
2019-05-02T16:46:06.690Z,2.40
2019-05-02T16:48:37.762Z,4.10
2019-05-02T16:51:02.164Z,3.50
2019-05-02T16:53:31.056Z,3.77
2019-05-02T16:55:58.268Z,2.30
2019-05-02T16:58:25.064Z,3.60
2019-05-02T17:00:52.871Z,4.03
2019-05-02T17:03:22.756Z,1.95
2019-05-02T17:05:49.608Z,2.63
2019-05-02T17:11:15.828Z,1.98
2019-05-02T17:13:43.461Z,3.93
2019-05-02T17:16:15.689Z,2.33
2019-05-02T17:18:41.689Z,2.97
2019-05-02T17:21:08.286Z,2.43
2019-05-02T17:23:37.383Z,2.47
2019-05-02T17:26:03.985Z,4.63
2019-05-02T17:28:31.890Z,2.47
2019-05-02T17:30:59.544Z,1.90
2019-05-02T17:33:27.137Z,1.37
2019-05-02T17:35:54.681Z,5.40
2019-05-02T17:38:27.668Z,2.87
2019-05-02T17:40:53.699Z,1.60
2019-05-02T17:43:17.682Z,2.27
2019-05-02T17:45:45.310Z,2.90
2019-05-02T17:48:16.049Z,3.43
2019-05-02T17:53:42.745Z,2.45
2019-05-02T17:56:14.573Z,2.13
2019-05-02T17:58:36.452Z,3.10
2019-05-02T18:01:05.069Z,2.07
2019-05-02T18:03:35.183Z,2.63
2019-05-02T18:06:02.508Z,2.90
2019-05-02T18:08:28.402Z,4.73
2019-05-02T18:10:59.933Z,2.60
2019-05-02T18:13:23.994Z,2.63
2019-05-02T18:15:53.505Z,2.27
2019-05-02T18:18:22.151Z,6.12
2019-05-02T18:20:48.687Z,5.93
2019-05-02T18:23:18.715Z,5.63
2019-05-02T18:25:44.569Z,2.03
2019-05-02T18:28:24.538Z,2.20
2019-05-02T18:30:42.796Z,4.30
2019-05-02T18:33:12.038Z,3.28
2019-05-02T18:35:45.198Z,4.10
2019-05-02T18:38:06.876Z,4.20
2019-05-02T18:40:34.424Z,2.93
2019-05-02T18:43:05.137Z,2.40
2019-05-02T18:45:31.725Z,3.73
2019-05-02T18:48:02.149Z,3.47
2019-05-02T18:50:28.378Z,5.13
2019-05-02T18:52:56.110Z,2.10
2019-05-02T18:55:25.858Z,3.87
2019-05-02T18:57:52.371Z,4.73
2019-05-02T19:00:19.230Z,5.47
2019-05-02T19:02:46.902Z,1.80
2019-05-02T19:05:19.277Z,4.30
2019-05-02T19:07:42.844Z,1.60
2019-05-02T19:10:14.325Z,5.13
2019-05-02T19:12:43.554Z,4.30
2019-05-02T19:15:12.036Z,4.70
2019-05-02T19:17:40.568Z,5.00
2019-05-02T19:20:22.156Z,6.30
2019-05-02T19:22:54.206Z,5.10
2019-05-02T19:25:16.313Z,3.07
2019-05-02T19:28:03.565Z,3.92
2019-05-02T19:30:32.615Z,3.73
2019-05-02T19:33:05.483Z,6.50
2019-05-02T19:35:27.067Z,3.50
2019-05-02T19:37:55.488Z,2.33
2019-05-02T19:40:26.928Z,2.37
2019-05-02T19:42:52.681Z,3.67
2019-05-02T19:45:19.054Z,2.62
2019-05-02T19:47:49.027Z,2.53
2019-05-02T19:50:43.327Z,3.83
2019-05-02T19:53:14.953Z,2.90
2019-05-02T19:55:33.968Z,3.10
2019-05-02T19:58:06.283Z,3.80
2019-05-02T20:00:29.090Z,4.93
2019-05-02T20:02:57.502Z,7.13
2019-05-02T20:05:25.752Z,4.00
2019-05-02T20:07:53.751Z,4.23
2019-05-02T20:10:22.743Z,3.27
2019-05-02T20:12:50.921Z,4.43
2019-05-02T20:15:17.007Z,4.13
2019-05-02T20:17:45.260Z,4.23
2019-05-02T20:23:17.920Z,5.55
2019-05-02T20:25:42.597Z,5.93
2019-05-02T20:28:09.087Z,4.50
2019-05-02T20:30:36.693Z,6.20
2019-05-02T20:33:05.349Z,3.37
2019-05-02T20:35:33.546Z,4.07
2019-05-02T20:38:01.681Z,6.93
2019-05-02T20:40:31.987Z,3.43
2019-05-02T20:42:59.980Z,5.27
2019-05-02T20:45:27.613Z,4.07
2019-05-02T20:47:56.158Z,2.63
2019-05-02T20:50:23.923Z,2.80
2019-05-02T20:52:52.437Z,5.53
2019-05-02T20:55:19.687Z,2.60
2019-05-02T20:57:48.208Z,2.50
2019-05-02T21:00:25.293Z,3.93
2019-05-02T21:02:53.084Z,2.57
2019-05-02T21:05:21.562Z,3.97
2019-05-02T21:08:01.791Z,6.10
2019-05-02T21:10:46.478Z,2.53
2019-05-02T21:13:14.244Z,5.07
2019-05-02T21:15:41.909Z,4.13
2019-05-02T21:18:11.613Z,3.15
2019-05-02T21:20:37.742Z,2.90
2019-05-02T21:23:05.609Z,3.33
2019-05-02T21:25:34.330Z,3.70
2019-05-02T21:28:03.428Z,6.28
2019-05-02T21:30:32.253Z,5.87
2019-05-02T21:32:59.742Z,3.30
2019-05-02T21:35:28.337Z,6.50
2019-05-02T21:37:56.130Z,4.20
2019-05-02T21:40:25.762Z,4.87
2019-05-02T21:42:52.374Z,4.63
2019-05-02T21:45:22.249Z,2.73
2019-05-02T21:47:50.194Z,2.93
2019-05-02T21:50:18.261Z,4.10
2019-05-02T21:53:05.450Z,3.10
2019-05-02T21:55:34.029Z,3.07
2019-05-02T21:58:02.792Z,2.53
2019-05-02T22:00:36.417Z,4.00
2019-05-02T22:03:04.792Z,4.77
2019-05-02T22:05:32.489Z,5.67
2019-05-02T22:08:00.353Z,6.00
2019-05-02T22:10:28.014Z,1.90
2019-05-02T22:12:55.742Z,2.30
2019-05-02T22:15:24.257Z,4.43
2019-05-02T22:17:52.293Z,5.30
2019-05-02T22:20:22.870Z,8.17
2019-05-02T22:22:49.258Z,2.63
2019-05-02T22:25:16.875Z,2.87
2019-05-02T22:27:44.637Z,4.20
2019-05-02T22:30:13.767Z,1.63
2019-05-02T22:32:42.722Z,4.00
2019-05-02T22:35:09.186Z,4.00
2019-05-02T22:37:36.952Z,3.67
2019-05-02T22:40:04.718Z,4.43
2019-05-02T22:42:32.659Z,4.33
2019-05-02T22:45:02.035Z,5.20
2019-05-02T22:47:29.071Z,2.97
2019-05-02T22:49:56.909Z,3.43
2019-05-02T22:52:24.597Z,4.80
2019-05-02T22:54:52.435Z,2.30
2019-05-02T22:57:22.544Z,3.40
2019-05-02T22:59:48.704Z,3.27
2019-05-02T23:02:16.440Z,2.43
2019-05-02T23:04:45.017Z,2.30
2019-05-02T23:07:12.848Z,2.97
2019-05-02T23:09:43.379Z,2.90
2019-05-02T23:12:08.785Z,4.15
2019-05-02T23:14:36.649Z,5.60
2019-05-02T23:17:04.317Z,3.50
2019-05-02T23:19:32.015Z,4.03
2019-05-02T23:22:01.890Z,1.73
2019-05-02T23:24:38.487Z,4.90
2019-05-02T23:26:58.065Z,4.43
2019-05-02T23:29:25.728Z,3.37
2019-05-02T23:31:53.496Z,4.17
2019-05-02T23:34:23.327Z,1.80
2019-05-02T23:36:49.027Z,4.77
2019-05-02T23:39:16.832Z,3.33
2019-05-02T23:41:44.665Z,6.87
2019-05-02T23:44:12.942Z,4.55
2019-05-02T23:46:42.225Z,5.40
2019-05-02T23:49:08.515Z,1.77
2019-05-02T23:51:36.374Z,3.57
2019-05-02T23:54:04.084Z,4.03
2019-05-02T23:56:32.728Z,6.07
2019-05-02T23:59:02.529Z,3.67
